Time;durP1;ratioP1;P1;durP2;ratioP2;P2;SDS_P1;SDS_P2;PMS_P1;PMS_P2;Temp;Humidity;BMP_temperature;BMP_pressure;BME280_temperature;BME280_humidity;BME280_pressure;Samples;Min_cycle;Max_cycle;Signal;HPM_P1;HPM_P2
2023/09/09 00:01:30;;;;;;;3.20;3.00;;;;;;;;;;5023844;28;20049;-60
2023/09/09 00:03:56;;;;;;;3.33;3.13;;;;;;;;;;5023044;28;20041;-60
2023/09/09 00:06:23;;;;;;;2.97;2.78;;;;;;;;;;5024464;28;20053;-60
2023/09/09 00:08:49;;;;;;;3.45;3.17;;;;;;;;;;5023513;28;20061;-59
2023/09/09 00:11:15;;;;;;;3.03;2.83;;;;;;;;;;5026010;28;20038;-59
2023/09/09 00:13:41;;;;;;;2.83;2.63;;;;;;;;;;5025428;28;20535;-60
2023/09/09 00:16:07;;;;;;;3.30;3.10;;;;;;;;;;5025892;28;20037;-60
2023/09/09 00:18:34;;;;;;;3.20;3.00;;;;;;;;;;5025695;28;20124;-60
2023/09/09 00:21:00;;;;;;;2.80;2.60;;;;;;;;;;5024220;28;20586;-59
2023/09/09 00:23:26;;;;;;;3.80;3.50;;;;;;;;;;5018400;28;20119;-60
2023/09/09 00:25:52;;;;;;;3.42;3.22;;;;;;;;;;5022511;28;20048;-60
2023/09/09 00:28:20;;;;;;;3.65;3.35;;;;;;;;;;5028253;28;20645;-60
2023/09/09 00:30:46;;;;;;;3.70;3.40;;;;;;;;;;5029001;28;20045;-59
2023/09/09 00:33:12;;;;;;;3.15;2.95;;;;;;;;;;5029194;28;20140;-61
2023/09/09 00:35:39;;;;;;;3.55;3.35;;;;;;;;;;5024975;28;20044;-60
2023/09/09 00:38:06;;;;;;;3.42;3.15;;;;;;;;;;5029029;28;20583;-60
2023/09/09 00:40:32;;;;;;;3.60;3.30;;;;;;;;;;5028688;28;20493;-60
2023/09/09 00:42:59;;;;;;;3.20;3.00;;;;;;;;;;5029414;28;20600;-60
2023/09/09 00:45:27;;;;;;;3.55;3.30;;;;;;;;;;5028345;28;20518;-59
2023/09/09 00:47:53;;;;;;;2.88;2.67;;;;;;;;;;5022525;28;20065;-60
2023/09/09 00:50:20;;;;;;;3.28;3.08;;;;;;;;;;5028991;28;20091;-60
2023/09/09 00:52:47;;;;;;;3.72;3.42;;;;;;;;;;5028638;28;20065;-59
2023/09/09 00:55:13;;;;;;;4.18;3.80;;;;;;;;;;5028586;28;20466;-60
2023/09/09 00:57:39;;;;;;;3.47;3.28;;;;;;;;;;5019820;28;20079;-60
2023/09/09 01:00:14;;;;;;;3.40;3.20;;;;;;;;;;5017910;28;20041;-60
2023/09/09 01:02:41;;;;;;;4.35;3.97;;;;;;;;;;5028008;28;20040;-60
2023/09/09 01:05:07;;;;;;;2.95;2.75;;;;;;;;;;5028281;28;20034;-60
2023/09/09 01:07:44;;;;;;;3.55;3.35;;;;;;;;;;5020752;28;20068;-60
2023/09/09 01:10:10;;;;;;;2.95;2.75;;;;;;;;;;5019810;28;20555;-59
2023/09/09 01:12:36;;;;;;;2.85;2.65;;;;;;;;;;5027997;28;20050;-59
2023/09/09 01:15:02;;;;;;;2.83;2.63;;;;;;;;;;5028755;28;20053;-59
2023/09/09 01:17:28;;;;;;;3.40;3.20;;;;;;;;;;5021813;28;20095;-59
2023/09/09 01:19:58;;;;;;;2.97;2.78;;;;;;;;;;5027013;28;20052;-59
2023/09/09 01:22:24;;;;;;;3.30;3.10;;;;;;;;;;5028457;28;20628;-60
2023/09/09 01:24:50;;;;;;;3.03;2.83;;;;;;;;;;5027174;28;20417;-60
2023/09/09 01:27:16;;;;;;;3.10;2.90;;;;;;;;;;5027781;28;20045;-60
2023/09/09 01:29:42;;;;;;;2.90;2.58;;;;;;;;;;5025313;28;20194;-60
2023/09/09 01:32:08;;;;;;;2.72;2.53;;;;;;;;;;5028266;28;20469;-60
2023/09/09 01:34:34;;;;;;;3.08;2.80;;;;;;;;;;5027311;28;20980;-60
2023/09/09 01:37:00;;;;;;;2.45;2.35;;;;;;;;;;5024787;28;20046;-59
2023/09/09 01:39:26;;;;;;;2.90;2.70;;;;;;;;;;5027257;28;20048;-59
2023/09/09 01:41:52;;;;;;;2.95;2.75;;;;;;;;;;5028080;28;20038;-59
2023/09/09 01:44:18;;;;;;;2.47;2.28;;;;;;;;;;5023524;28;20053;-60
2023/09/09 01:46:44;;;;;;;2.80;2.60;;;;;;;;;;5028236;28;20041;-60
2023/09/09 01:49:10;;;;;;;2.88;2.67;;;;;;;;;;5026219;28;20053;-59
2023/09/09 01:51:36;;;;;;;2.55;2.35;;;;;;;;;;5026934;28;20041;-59
2023/09/09 01:54:02;;;;;;;2.90;2.70;;;;;;;;;;5023782;28;20065;-59
2023/09/09 01:56:28;;;;;;;2.78;2.58;;;;;;;;;;5024626;28;20041;-60
2023/09/09 01:58:54;;;;;;;2.60;2.42;;;;;;;;;;5027032;28;20040;-59
2023/09/09 02:01:20;;;;;;;3.08;2.88;;;;;;;;;;5027920;28;20073;-60
2023/09/09 02:03:47;;;;;;;2.65;2.45;;;;;;;;;;5025202;28;20041;-59
2023/09/09 02:06:13;;;;;;;2.17;2.08;;;;;;;;;;5027072;28;20529;-59
2023/09/09 02:08:39;;;;;;;2.70;2.50;;;;;;;;;;5022651;28;20270;-59
2023/09/09 02:11:05;;;;;;;2.50;2.30;;;;;;;;;;5022192;28;20080;-59
2023/09/09 02:13:31;;;;;;;2.60;2.40;;;;;;;;;;5027081;28;20077;-59
2023/09/09 02:16:04;;;;;;;2.22;2.03;;;;;;;;;;5027454;28;20076;-59
2023/09/09 02:18:30;;;;;;;2.53;2.33;;;;;;;;;;5027326;28;20050;-59
2023/09/09 02:20:59;;;;;;;2.70;2.50;;;;;;;;;;5025515;28;20037;-59
2023/09/09 02:23:27;;;;;;;2.78;2.58;;;;;;;;;;5027211;28;20034;-59
2023/09/09 02:25:53;;;;;;;2.85;2.65;;;;;;;;;;5027567;28;20053;-59
2023/09/09 02:28:19;;;;;;;2.60;2.40;;;;;;;;;;5027096;28;20124;-60
2023/09/09 02:30:45;;;;;;;2.90;2.60;;;;;;;;;;5027506;28;20462;-60
2023/09/09 02:33:11;;;;;;;2.78;2.58;;;;;;;;;;5025249;28;20091;-60
2023/09/09 02:35:46;;;;;;;2.70;2.50;;;;;;;;;;5021036;28;20037;-60
2023/09/09 02:38:12;;;;;;;2.70;2.50;;;;;;;;;;5022102;28;20052;-60
2023/09/09 02:40:38;;;;;;;2.63;2.42;;;;;;;;;;5021534;28;20045;-59
2023/09/09 02:43:04;;;;;;;2.53;2.33;;;;;;;;;;5026117;28;20037;-59
2023/09/09 02:45:30;;;;;;;2.13;2.03;;;;;;;;;;5019539;28;20777;-59
2023/09/09 02:47:56;;;;;;;2.22;2.13;;;;;;;;;;5025858;28;20079;-59
2023/09/09 02:50:22;;;;;;;2.30;2.20;;;;;;;;;;5023176;28;20053;-60
2023/09/09 02:52:49;;;;;;;2.45;2.25;;;;;;;;;;5026449;28;20394;-59
2023/09/09 02:55:15;;;;;;;2.40;2.20;;;;;;;;;;5025159;28;20136;-59
2023/09/09 02:57:41;;;;;;;1.80;1.70;;;;;;;;;;5024646;28;20038;-59
2023/09/09 03:00:07;;;;;;;2.22;2.13;;;;;;;;;;5025486;28;20110;-59
2023/09/09 03:02:33;;;;;;;2.20;2.10;;;;;;;;;;5025933;28;20091;-59
2023/09/09 03:04:59;;;;;;;2.17;2.08;;;;;;;;;;5026024;28;20507;-59
2023/09/09 03:07:25;;;;;;;2.70;2.50;;;;;;;;;;5025666;28;20049;-59
2023/09/09 03:09:51;;;;;;;2.55;2.35;;;;;;;;;;5026069;28;20045;-59
2023/09/09 03:12:20;;;;;;;2.70;2.50;;;;;;;;;;5025463;28;20073;-59
2023/09/09 03:14:49;;;;;;;2.63;2.45;;;;;;;;;;5026135;28;20638;-60
2023/09/09 03:17:16;;;;;;;2.38;2.28;;;;;;;;;;5025061;28;20056;-59
2023/09/09 03:19:42;;;;;;;2.30;2.20;;;;;;;;;;5025882;28;20104;-60
2023/09/09 03:22:08;;;;;;;2.67;2.47;;;;;;;;;;5025503;28;20485;-60
2023/09/09 03:24:34;;;;;;;2.78;2.58;;;;;;;;;;5024910;28;20153;-60
2023/09/09 03:27:00;;;;;;;2.08;1.98;;;;;;;;;;5024337;28;20075;-60
2023/09/09 03:29:26;;;;;;;2.05;1.95;;;;;;;;;;5025392;28;20786;-59
2023/09/09 03:31:52;;;;;;;2.08;1.98;;;;;;;;;;5025794;28;20041;-60
2023/09/09 03:34:18;;;;;;;1.98;1.88;;;;;;;;;;5025312;28;20060;-60
2023/09/09 03:36:44;;;;;;;2.10;2.00;;;;;;;;;;5024399;28;20124;-60
2023/09/09 03:39:10;;;;;;;2.10;2.00;;;;;;;;;;5025432;28;20045;-60
2023/09/09 03:41:38;;;;;;;2.50;2.30;;;;;;;;;;5025513;28;20045;-60
2023/09/09 03:44:04;;;;;;;2.00;1.90;;;;;;;;;;5019859;28;20041;-60
2023/09/09 03:46:30;;;;;;;2.10;2.00;;;;;;;;;;5023685;28;20402;-59
2023/09/09 03:48:56;;;;;;;2.20;2.08;;;;;;;;;;5020732;28;20071;-60
2023/09/09 03:51:22;;;;;;;1.88;1.77;;;;;;;;;;5020365;28;20044;-60
2023/09/09 03:53:48;;;;;;;2.30;2.10;;;;;;;;;;5025353;28;20037;-59
2023/09/09 03:56:15;;;;;;;2.17;1.98;;;;;;;;;;5022247;28;20056;-59
2023/09/09 03:58:41;;;;;;;1.80;1.70;;;;;;;;;;5014722;28;20374;-59
2023/09/09 04:01:09;;;;;;;2.13;2.03;;;;;;;;;;5021446;28;20041;-59
2023/09/09 04:03:35;;;;;;;1.98;1.88;;;;;;;;;;5022053;28;20480;-59
2023/09/09 04:06:06;;;;;;;2.17;2.08;;;;;;;;;;5024983;28;20037;-59
2023/09/09 04:08:32;;;;;;;2.45;2.33;;;;;;;;;;5025698;28;20068;-59
2023/09/09 04:10:58;;;;;;;2.38;2.28;;;;;;;;;;5019618;28;20052;-60
2023/09/09 04:13:24;;;;;;;2.55;2.33;;;;;;;;;;5024625;28;20037;-60
2023/09/09 04:15:52;;;;;;;2.35;2.17;;;;;;;;;;5025737;28;20049;-60
2023/09/09 04:18:18;;;;;;;2.00;1.80;;;;;;;;;;5025303;28;20041;-59
2023/09/09 04:20:44;;;;;;;2.50;2.35;;;;;;;;;;5025253;28;20729;-59
2023/09/09 04:23:10;;;;;;;2.17;1.98;;;;;;;;;;5025377;28;20062;-59
2023/09/09 04:25:36;;;;;;;2.35;2.00;;;;;;;;;;5016586;28;20725;-59
2023/09/09 04:28:02;;;;;;;2.10;2.00;;;;;;;;;;5024442;28;20394;-59
2023/09/09 04:30:28;;;;;;;1.83;1.73;;;;;;;;;;5025304;28;20037;-59
2023/09/09 04:32:54;;;;;;;2.17;2.08;;;;;;;;;;5021565;28;20478;-59
2023/09/09 04:35:20;;;;;;;2.00;1.90;;;;;;;;;;5024621;28;20037;-59
2023/09/09 04:37:50;;;;;;;1.70;1.60;;;;;;;;;;5025150;28;20044;-60
2023/09/09 04:40:16;;;;;;;2.20;2.10;;;;;;;;;;5024805;28;20133;-59
2023/09/09 04:42:42;;;;;;;2.05;1.95;;;;;;;;;;5023931;28;20041;-59
2023/09/09 04:45:08;;;;;;;1.98;1.88;;;;;;;;;;5025206;28;20042;-59
2023/09/09 04:47:34;;;;;;;2.28;2.08;;;;;;;;;;5024209;28;20057;-59
2023/09/09 04:50:00;;;;;;;2.00;1.90;;;;;;;;;;5025302;28;20467;-59
2023/09/09 04:52:26;;;;;;;1.95;1.85;;;;;;;;;;5024532;28;20053;-60
2023/09/09 04:54:52;;;;;;;1.90;1.80;;;;;;;;;;5024816;28;20041;-59
2023/09/09 04:57:19;;;;;;;1.90;1.80;;;;;;;;;;5024881;28;20083;-59
2023/09/09 04:59:44;;;;;;;1.95;1.85;;;;;;;;;;5025228;28;20037;-60
2023/09/09 05:02:11;;;;;;;1.85;1.75;;;;;;;;;;5024845;28;20048;-60
2023/09/09 05:04:37;;;;;;;2.55;2.35;;;;;;;;;;5025495;28;20041;-60
2023/09/09 05:07:03;;;;;;;2.53;2.35;;;;;;;;;;5025043;28;20093;-59
2023/09/09 05:09:29;;;;;;;2.28;2.08;;;;;;;;;;5023397;28;20056;-59
2023/09/09 05:11:55;;;;;;;2.72;2.53;;;;;;;;;;5024821;28;20046;-59
2023/09/09 05:14:21;;;;;;;2.75;2.55;;;;;;;;;;5027450;28;20037;-59
2023/09/09 05:16:47;;;;;;;2.35;2.15;;;;;;;;;;5028282;28;20057;-59
2023/09/09 05:19:13;;;;;;;3.15;2.95;;;;;;;;;;5020789;28;20049;-59
2023/09/09 05:21:39;;;;;;;3.33;3.13;;;;;;;;;;5031803;28;20045;-59
2023/09/09 05:24:05;;;;;;;2.95;2.67;;;;;;;;;;5028036;28;20048;-59
2023/09/09 05:26:31;;;;;;;2.80;2.60;;;;;;;;;;5028541;28;20142;-59
2023/09/09 05:28:57;;;;;;;2.65;2.45;;;;;;;;;;5027682;28;20056;-59
2023/09/09 05:31:23;;;;;;;2.88;2.67;;;;;;;;;;5027957;28;20037;-59
2023/09/09 05:33:49;;;;;;;2.80;2.60;;;;;;;;;;5028602;28;20045;-60
2023/09/09 05:36:15;;;;;;;3.03;2.83;;;;;;;;;;5027864;28;20477;-60
2023/09/09 05:38:41;;;;;;;2.97;2.78;;;;;;;;;;5028202;28;20480;-59
2023/09/09 05:41:07;;;;;;;2.60;2.40;;;;;;;;;;5027594;28;20047;-59
2023/09/09 05:43:33;;;;;;;3.13;2.92;;;;;;;;;;5027129;28;20044;-59
2023/09/09 05:46:00;;;;;;;3.15;2.85;;;;;;;;;;5028137;28;20037;-59
2023/09/09 05:48:26;;;;;;;2.90;2.70;;;;;;;;;;5027746;28;20554;-59
2023/09/09 05:50:55;;;;;;;2.40;2.25;;;;;;;;;;5027510;28;20496;-60
2023/09/09 05:53:21;;;;;;;2.75;2.55;;;;;;;;;;5028089;28;20049;-60
2023/09/09 05:55:47;;;;;;;3.00;2.72;;;;;;;;;;5027958;28;20041;-59
2023/09/09 05:58:13;;;;;;;3.00;2.80;;;;;;;;;;5027293;28;20401;-59
2023/09/09 06:00:39;;;;;;;2.90;2.70;;;;;;;;;;5027860;28;20045;-59
2023/09/09 06:03:05;;;;;;;2.75;2.55;;;;;;;;;;5027768;28;20041;-59
2023/09/09 06:05:31;;;;;;;2.33;2.22;;;;;;;;;;5025878;28;20045;-59
2023/09/09 06:07:57;;;;;;;2.20;2.10;;;;;;;;;;5026947;28;20042;-59
2023/09/09 06:10:24;;;;;;;1.85;1.75;;;;;;;;;;5027354;28;20401;-59
2023/09/09 06:12:50;;;;;;;2.15;2.05;;;;;;;;;;5026986;28;20053;-59
2023/09/09 06:15:16;;;;;;;1.90;1.80;;;;;;;;;;5027977;28;20045;-59
2023/09/09 06:17:42;;;;;;;1.92;1.83;;;;;;;;;;5027334;28;20791;-59
2023/09/09 06:20:09;;;;;;;1.80;1.70;;;;;;;;;;5026755;28;20118;-59
2023/09/09 06:22:35;;;;;;;1.98;1.88;;;;;;;;;;5027240;28;20053;-59
2023/09/09 06:25:02;;;;;;;2.15;2.00;;;;;;;;;;5026795;28;20122;-59
2023/09/09 06:27:28;;;;;;;1.70;1.60;;;;;;;;;;5018734;28;20076;-60
2023/09/09 06:29:54;;;;;;;1.80;1.70;;;;;;;;;;5027557;28;20526;-59
2023/09/09 06:32:20;;;;;;;1.48;1.38;;;;;;;;;;5024509;28;20080;-59
2023/09/09 06:34:46;;;;;;;1.45;1.35;;;;;;;;;;5027392;28;20159;-59
2023/09/09 06:37:12;;;;;;;1.30;1.20;;;;;;;;;;5025722;28;20045;-59
2023/09/09 06:39:38;;;;;;;1.63;1.52;;;;;;;;;;5022096;28;20410;-60
2023/09/09 06:42:06;;;;;;;1.77;1.67;;;;;;;;;;5025724;28;20378;-60
2023/09/09 06:44:32;;;;;;;1.90;1.80;;;;;;;;;;5025617;28;21836;-59
2023/09/09 06:46:58;;;;;;;2.30;2.10;;;;;;;;;;5025119;28;20057;-59
2023/09/09 06:49:24;;;;;;;1.42;1.33;;;;;;;;;;5025217;28;20130;-59
2023/09/09 06:51:50;;;;;;;2.40;2.30;;;;;;;;;;5022080;28;20076;-60
2023/09/09 06:54:16;;;;;;;1.70;1.60;;;;;;;;;;5025478;28;20049;-60
2023/09/09 06:56:42;;;;;;;1.73;1.63;;;;;;;;;;5026146;28;20044;-60
2023/09/09 06:59:08;;;;;;;2.90;2.70;;;;;;;;;;5026068;28;20136;-60
2023/09/09 07:01:35;;;;;;;1.67;1.58;;;;;;;;;;5021707;28;20085;-59
2023/09/09 07:04:01;;;;;;;1.70;1.60;;;;;;;;;;5025476;28;20538;-59
2023/09/09 07:06:28;;;;;;;2.60;2.42;;;;;;;;;;5025942;28;20037;-60
2023/09/09 07:08:53;;;;;;;2.10;2.00;;;;;;;;;;5025476;28;20046;-60
2023/09/09 07:11:20;;;;;;;1.65;1.55;;;;;;;;;;5020902;28;20103;-60
2023/09/09 07:13:46;;;;;;;4.68;4.28;;;;;;;;;;5026729;28;20044;-59
2023/09/09 07:16:12;;;;;;;3.80;3.50;;;;;;;;;;5025594;28;20033;-59
2023/09/09 07:18:38;;;;;;;2.65;2.45;;;;;;;;;;5026166;28;20043;-59
2023/09/09 07:21:04;;;;;;;2.42;2.30;;;;;;;;;;5026259;28;20472;-58
2023/09/09 07:23:30;;;;;;;2.65;2.45;;;;;;;;;;5025385;28;20145;-59
2023/09/09 07:25:56;;;;;;;2.13;2.03;;;;;;;;;;5017775;28;20041;-58
2023/09/09 07:28:23;;;;;;;2.20;2.10;;;;;;;;;;5014184;28;20045;-66
2023/09/09 07:30:51;;;;;;;2.95;2.75;;;;;;;;;;5014838;28;20042;-63
2023/09/09 07:33:18;;;;;;;3.90;3.60;;;;;;;;;;5016710;28;20665;-60
2023/09/09 07:35:44;;;;;;;3.58;3.38;;;;;;;;;;5016872;28;20042;-60
2023/09/09 07:38:11;;;;;;;3.30;3.00;;;;;;;;;;5025648;28;20045;-60
2023/09/09 07:40:37;;;;;;;3.47;3.17;;;;;;;;;;5025906;28;20042;-60
2023/09/09 07:43:03;;;;;;;2.80;2.60;;;;;;;;;;5023356;28;20095;-60
2023/09/09 07:45:29;;;;;;;2.90;2.70;;;;;;;;;;5024317;28;20501;-60
2023/09/09 07:47:56;;;;;;;2.80;2.60;;;;;;;;;;5022130;28;20100;-60
2023/09/09 07:50:22;;;;;;;2.40;2.20;;;;;;;;;;5021425;28;20056;-61
2023/09/09 07:52:48;;;;;;;1.83;1.73;;;;;;;;;;5023763;28;20052;-60
2023/09/09 07:55:14;;;;;;;2.78;2.58;;;;;;;;;;5025374;28;20037;-60
2023/09/09 07:57:40;;;;;;;2.40;2.30;;;;;;;;;;5024859;28;20802;-59
2023/09/09 08:00:07;;;;;;;4.07;3.78;;;;;;;;;;5025570;28;20091;-60
2023/09/09 08:02:35;;;;;;;2.85;2.65;;;;;;;;;;5017072;28;20116;-60
2023/09/09 08:05:01;;;;;;;3.25;2.95;;;;;;;;;;5013716;28;20038;-60
2023/09/09 08:07:27;;;;;;;3.60;3.33;;;;;;;;;;5014353;28;20069;-60
2023/09/09 08:09:54;;;;;;;2.80;2.63;;;;;;;;;;5025305;28;20091;-60
2023/09/09 08:12:20;;;;;;;2.38;2.28;;;;;;;;;;5025327;28;20044;-60
2023/09/09 08:14:47;;;;;;;2.88;2.70;;;;;;;;;;5025883;28;20038;-60
2023/09/09 08:17:13;;;;;;;2.50;2.30;;;;;;;;;;5024561;28;20060;-60
2023/09/09 08:19:39;;;;;;;2.17;1.98;;;;;;;;;;5024766;28;20334;-60
2023/09/09 08:22:06;;;;;;;2.63;2.42;;;;;;;;;;5025390;28;20486;-60
2023/09/09 08:24:32;;;;;;;1.80;1.70;;;;;;;;;;5025126;28;20042;-60
2023/09/09 08:26:59;;;;;;;2.15;2.05;;;;;;;;;;5023864;28;20048;-61
2023/09/09 08:29:25;;;;;;;1.92;1.75;;;;;;;;;;5025583;28;20053;-60
2023/09/09 08:31:51;;;;;;;1.88;1.77;;;;;;;;;;5025148;28;20037;-60
2023/09/09 08:34:17;;;;;;;1.95;1.85;;;;;;;;;;5025544;28;20045;-60
2023/09/09 08:36:43;;;;;;;1.98;1.88;;;;;;;;;;5025527;28;20095;-60
2023/09/09 08:39:11;;;;;;;1.88;1.77;;;;;;;;;;5024530;28;20409;-60
2023/09/09 08:41:42;;;;;;;2.20;2.10;;;;;;;;;;5025288;28;20524;-60
2023/09/09 08:44:08;;;;;;;;;;;;;;;;;;5025834;28;20045;-60
2023/09/09 08:46:35;;;;;;;2.17;2.08;;;;;;;;;;5024540;28;19925;-60
2023/09/09 08:49:04;;;;;;;2.28;2.17;;;;;;;;;;5028659;28;20094;-60
2023/09/09 08:51:32;;;;;;;2.40;2.20;;;;;;;;;;5026845;28;20045;-60
2023/09/09 08:53:58;;;;;;;1.58;1.48;;;;;;;;;;5027594;28;20075;-60
2023/09/09 08:56:24;;;;;;;1.80;1.70;;;;;;;;;;5023044;28;20069;-60
2023/09/09 08:58:50;;;;;;;2.80;2.53;;;;;;;;;;5024485;28;20041;-60
2023/09/09 09:01:17;;;;;;;5.35;4.95;;;;;;;;;;5026167;28;20098;-60
2023/09/09 09:03:45;;;;;;;4.70;4.30;;;;;;;;;;5025120;28;20042;-60
2023/09/09 09:06:11;;;;;;;3.78;3.47;;;;;;;;;;5023588;28;20534;-60
2023/09/09 09:08:37;;;;;;;3.70;3.45;;;;;;;;;;5022135;28;20049;-60
2023/09/09 09:11:04;;;;;;;3.25;3.05;;;;;;;;;;5028905;28;20038;-60
2023/09/09 09:13:31;;;;;;;2.35;2.25;;;;;;;;;;5028534;28;20046;-60
2023/09/09 09:15:59;;;;;;;6.65;6.15;;;;;;;;;;5027034;28;20037;-60
2023/09/09 09:18:25;;;;;;;6.00;5.50;;;;;;;;;;5023129;28;20641;-60
2023/09/09 09:20:52;;;;;;;4.10;3.80;;;;;;;;;;5028868;28;20091;-60
2023/09/09 09:23:19;;;;;;;3.35;3.15;;;;;;;;;;5028388;28;20508;-60
2023/09/09 09:25:47;;;;;;;2.85;2.65;;;;;;;;;;5028760;28;20047;-60
2023/09/09 09:28:14;;;;;;;5.85;5.43;;;;;;;;;;5017059;28;20049;-60
2023/09/09 09:30:41;;;;;;;4.30;4.00;;;;;;;;;;5014212;28;20046;-59
2023/09/09 09:33:07;;;;;;;3.80;3.50;;;;;;;;;;5028077;28;20041;-59
2023/09/09 09:35:34;;;;;;;2.88;2.63;;;;;;;;;;5027387;28;20551;-60
2023/09/09 09:38:06;;;;;;;2.40;2.30;;;;;;;;;;5019913;28;20469;-59
2023/09/09 09:40:32;;;;;;;3.05;2.85;;;;;;;;;;5019690;28;20049;-60
2023/09/09 09:42:58;;;;;;;3.45;3.25;;;;;;;;;;5026891;28;20432;-60
2023/09/09 09:45:28;;;;;;;4.50;4.07;;;;;;;;;;5028025;28;20044;-59
2023/09/09 09:47:55;;;;;;;5.28;4.88;;;;;;;;;;5027565;28;20537;-60
2023/09/09 09:50:32;;;;;;;8.25;7.57;;;;;;;;;;5027177;28;20056;-59
2023/09/09 09:52:58;;;;;;;6.53;5.97;;;;;;;;;;5026073;28;20041;-60
2023/09/09 09:55:24;;;;;;;4.85;4.45;;;;;;;;;;5027629;28;20113;-60
2023/09/09 09:57:53;;;;;;;6.80;6.20;;;;;;;;;;5026781;28;20397;-59
2023/09/09 10:00:20;;;;;;;7.97;7.28;;;;;;;;;;5027697;28;20034;-60
2023/09/09 10:02:46;;;;;;;5.30;4.90;;;;;;;;;;5028505;28;20175;-60
2023/09/09 10:05:14;;;;;;;5.43;5.03;;;;;;;;;;5027306;28;20413;-59
2023/09/09 10:07:44;;;;;;;5.30;4.90;;;;;;;;;;5024952;28;20041;-60
2023/09/09 10:10:14;;;;;;;4.93;4.53;;;;;;;;;;5024408;28;20053;-59
2023/09/09 10:12:48;;;;;;;4.75;4.45;;;;;;;;;;5024789;28;20044;-59
2023/09/09 10:15:15;;;;;;;3.55;3.25;;;;;;;;;;5027242;28;20033;-59
2023/09/09 10:17:42;;;;;;;4.25;3.95;;;;;;;;;;5025523;28;20590;-60
2023/09/09 10:20:08;;;;;;;4.60;4.30;;;;;;;;;;5027006;28;20041;-59
2023/09/09 10:22:36;;;;;;;4.63;4.32;;;;;;;;;;5026782;28;20042;-60
2023/09/09 10:25:05;;;;;;;3.72;3.42;;;;;;;;;;5024350;28;20492;-60
2023/09/09 10:27:32;;;;;;;3.88;3.58;;;;;;;;;;5023993;28;20037;-59
2023/09/09 10:29:58;;;;;;;3.25;3.05;;;;;;;;;;5024917;28;20044;-59
2023/09/09 10:32:26;;;;;;;4.78;4.20;;;;;;;;;;5025032;28;20124;-60
2023/09/09 10:34:53;;;;;;;3.67;3.47;;;;;;;;;;5026204;28;20049;-59
2023/09/09 10:37:19;;;;;;;5.30;4.90;;;;;;;;;;5025761;28;20041;-60
2023/09/09 10:39:49;;;;;;;4.75;4.40;;;;;;;;;;5024846;28;20497;-60
2023/09/09 10:42:16;;;;;;;3.97;3.75;;;;;;;;;;5025877;28;20050;-60
2023/09/09 10:44:49;;;;;;;4.55;4.25;;;;;;;;;;5025694;28;20045;-60
2023/09/09 10:47:16;;;;;;;3.90;3.33;;;;;;;;;;5024703;28;20059;-60
2023/09/09 10:49:42;;;;;;;3.30;3.10;;;;;;;;;;5025803;28;20121;-60
2023/09/09 10:52:28;;;;;;;3.33;3.10;;;;;;;;;;5025746;28;20046;-60
2023/09/09 10:55:10;;;;;;;5.10;4.70;;;;;;;;;;5019148;28;20030;-60
2023/09/09 10:57:36;;;;;;;4.05;3.75;;;;;;;;;;5016206;28;20576;-60
2023/09/09 11:00:11;;;;;;;4.07;3.78;;;;;;;;;;5014684;28;20065;-60
2023/09/09 11:02:45;;;;;;;5.10;4.70;;;;;;;;;;5016636;28;20077;-59
2023/09/09 11:05:12;;;;;;;6.10;5.70;;;;;;;;;;5026623;28;20125;-60
2023/09/09 11:07:39;;;;;;;5.47;5.07;;;;;;;;;;5016726;28;20037;-60
2023/09/09 11:10:06;;;;;;;4.05;3.75;;;;;;;;;;5015046;28;20034;-60
2023/09/09 11:12:32;;;;;;;3.88;3.58;;;;;;;;;;5014092;28;20081;-60
2023/09/09 11:15:08;;;;;;;4.65;4.35;;;;;;;;;;5016684;28;20046;-60
2023/09/09 11:17:40;;;;;;;3.08;2.88;;;;;;;;;;5026392;28;20052;-60
2023/09/09 11:20:13;;;;;;;2.20;2.10;;;;;;;;;;5026433;28;20049;-60
2023/09/09 11:22:40;;;;;;;3.20;3.00;;;;;;;;;;5025731;28;20068;-60
2023/09/09 11:25:07;;;;;;;3.33;3.13;;;;;;;;;;5023376;28;20047;-60
2023/09/09 11:27:33;;;;;;;5.82;5.32;;;;;;;;;;5023369;28;20389;-61
2023/09/09 11:29:59;;;;;;;3.60;3.30;;;;;;;;;;5024392;28;20500;-60
2023/09/09 11:32:26;;;;;;;3.38;3.17;;;;;;;;;;5025007;28;20083;-60
2023/09/09 11:34:53;;;;;;;3.72;3.42;;;;;;;;;;5016968;28;20033;-60
2023/09/09 11:37:19;;;;;;;3.60;3.30;;;;;;;;;;5026565;28;20041;-60
2023/09/09 11:39:45;;;;;;;3.70;3.40;;;;;;;;;;5025236;28;20469;-60
2023/09/09 11:42:11;;;;;;;3.30;3.00;;;;;;;;;;5015663;28;20157;-60
2023/09/09 11:44:41;;;;;;;3.08;2.88;;;;;;;;;;5020122;28;20057;-60
2023/09/09 11:47:08;;;;;;;2.88;2.67;;;;;;;;;;5022896;28;20795;-60
2023/09/09 11:49:34;;;;;;;2.40;2.20;;;;;;;;;;5024467;28;20617;-60
2023/09/09 11:52:00;;;;;;;3.20;3.00;;;;;;;;;;5025379;28;20041;-61
2023/09/09 11:54:27;;;;;;;2.55;2.45;;;;;;;;;;5024884;28;20126;-61
2023/09/09 11:57:03;;;;;;;3.08;2.88;;;;;;;;;;5023773;28;20053;-61
2023/09/09 11:59:29;;;;;;;2.78;2.58;;;;;;;;;;5024409;28;20421;-60
2023/09/09 12:01:55;;;;;;;2.97;2.78;;;;;;;;;;5025251;28;20087;-60
2023/09/09 12:04:21;;;;;;;2.30;2.20;;;;;;;;;;5024472;28;20033;-60
2023/09/09 12:06:49;;;;;;;2.85;2.65;;;;;;;;;;5023786;28;20045;-60
2023/09/09 12:09:15;;;;;;;2.88;2.67;;;;;;;;;;5023555;28;20045;-60
2023/09/09 12:11:42;;;;;;;2.92;2.72;;;;;;;;;;5022899;28;20084;-60
2023/09/09 12:14:09;;;;;;;2.70;2.30;;;;;;;;;;5023352;28;20046;-60
2023/09/09 12:16:36;;;;;;;2.05;1.95;;;;;;;;;;5021530;28;20099;-60
2023/09/09 12:19:02;;;;;;;2.13;2.03;;;;;;;;;;5023845;28;20404;-60
2023/09/09 12:21:29;;;;;;;2.55;2.40;;;;;;;;;;5024750;28;20042;-60
2023/09/09 12:23:59;;;;;;;3.10;2.90;;;;;;;;;;5024897;28;20071;-60
2023/09/09 12:26:26;;;;;;;2.85;2.65;;;;;;;;;;5026838;28;20719;-60
2023/09/09 12:29:05;;;;;;;2.67;2.38;;;;;;;;;;5028878;28;20046;-60
2023/09/09 12:31:49;;;;;;;2.30;2.10;;;;;;;;;;5024473;28;20048;-60
2023/09/09 12:34:18;;;;;;;3.08;2.88;;;;;;;;;;5025809;28;20054;-60
2023/09/09 12:36:46;;;;;;;2.70;2.50;;;;;;;;;;5028544;28;20120;-61
2023/09/09 12:39:18;;;;;;;2.55;2.35;;;;;;;;;;5027499;28;20049;-61
2023/09/09 12:41:55;;;;;;;2.40;2.20;;;;;;;;;;5021286;28;20052;-61
2023/09/09 12:44:21;;;;;;;2.05;1.95;;;;;;;;;;5023749;28;20111;-61
2023/09/09 12:46:51;;;;;;;2.33;2.22;;;;;;;;;;5026633;28;20438;-61
2023/09/09 12:49:17;;;;;;;2.70;2.50;;;;;;;;;;5026689;28;20057;-60
2023/09/09 12:51:43;;;;;;;2.35;2.22;;;;;;;;;;5022182;28;20052;-60
2023/09/09 12:54:09;;;;;;;3.25;3.05;;;;;;;;;;5026778;28;20057;-60
2023/09/09 12:56:35;;;;;;;2.42;2.33;;;;;;;;;;5025951;28;20049;-60
2023/09/09 12:59:01;;;;;;;2.80;2.60;;;;;;;;;;5024053;28;20055;-60
2023/09/09 13:01:27;;;;;;;2.72;2.50;;;;;;;;;;5024460;28;20038;-60
2023/09/09 13:03:53;;;;;;;3.33;3.13;;;;;;;;;;5028685;28;20069;-60
2023/09/09 13:06:19;;;;;;;3.22;3.03;;;;;;;;;;5028187;28;20069;-60
2023/09/09 13:08:45;;;;;;;3.00;2.80;;;;;;;;;;5028049;28;20438;-60
2023/09/09 13:11:11;;;;;;;2.40;2.20;;;;;;;;;;5025396;28;20034;-61
2023/09/09 13:13:37;;;;;;;2.00;1.90;;;;;;;;;;5024206;28;20037;-60
2023/09/09 13:16:06;;;;;;;2.13;2.03;;;;;;;;;;5025510;28;20095;-60
2023/09/09 13:18:32;;;;;;;2.25;2.05;;;;;;;;;;5020739;28;20054;-61
2023/09/09 13:20:58;;;;;;;2.10;2.00;;;;;;;;;;5023695;28;20397;-61
2023/09/09 13:23:24;;;;;;;2.60;2.40;;;;;;;;;;5028008;28;20051;-61
2023/09/09 13:25:50;;;;;;;2.15;2.05;;;;;;;;;;5027549;28;20494;-61
2023/09/09 13:28:16;;;;;;;2.08;1.98;;;;;;;;;;5022225;28;20037;-61
2023/09/09 13:30:42;;;;;;;1.80;1.70;;;;;;;;;;5027176;28;20075;-61
2023/09/09 13:33:08;;;;;;;2.10;2.00;;;;;;;;;;5026902;28;20085;-61
2023/09/09 13:35:34;;;;;;;1.95;1.85;;;;;;;;;;5024477;28;20056;-60
2023/09/09 13:38:00;;;;;;;1.70;1.60;;;;;;;;;;5026058;28;20083;-60
2023/09/09 13:40:26;;;;;;;2.30;2.20;;;;;;;;;;5026593;28;20056;-60
2023/09/09 13:42:52;;;;;;;1.90;1.80;;;;;;;;;;5027358;28;20049;-61
2023/09/09 13:45:18;;;;;;;2.10;1.92;;;;;;;;;;5028261;28;20049;-61
2023/09/09 13:47:44;;;;;;;1.60;1.50;;;;;;;;;;5023995;28;20996;-61
2023/09/09 13:50:10;;;;;;;2.08;1.98;;;;;;;;;;5025209;28;20057;-61
2023/09/09 13:52:36;;;;;;;1.63;1.52;;;;;;;;;;5024979;28;20536;-61
2023/09/09 13:55:03;;;;;;;1.55;1.45;;;;;;;;;;5026781;28;20068;-61
2023/09/09 13:57:29;;;;;;;1.70;1.60;;;;;;;;;;5025618;28;20049;-60
2023/09/09 13:59:56;;;;;;;1.35;1.25;;;;;;;;;;5019993;28;20045;-60
2023/09/09 14:02:23;;;;;;;1.40;1.30;;;;;;;;;;5026618;28;20080;-60
2023/09/09 14:04:49;;;;;;;1.40;1.30;;;;;;;;;;5026487;28;20049;-60
2023/09/09 14:07:15;;;;;;;1.25;1.15;;;;;;;;;;5026687;28;20121;-61
2023/09/09 14:09:41;;;;;;;1.77;1.67;;;;;;;;;;5025605;28;20831;-60
2023/09/09 14:12:07;;;;;;;1.40;1.30;;;;;;;;;;5026740;28;20120;-60
2023/09/09 14:14:36;;;;;;;1.95;1.85;;;;;;;;;;5025553;28;20076;-60
2023/09/09 14:17:03;;;;;;;1.80;1.70;;;;;;;;;;5025833;28;20444;-60
2023/09/09 14:19:29;;;;;;;2.10;1.65;;;;;;;;;;5025068;28;20049;-60
2023/09/09 14:21:55;;;;;;;2.40;2.20;;;;;;;;;;5025059;28;20041;-61
2023/09/09 14:24:21;;;;;;;2.00;1.90;;;;;;;;;;5026419;28;20056;-60
2023/09/09 14:26:47;;;;;;;1.90;1.80;;;;;;;;;;5023897;28;20448;-60
2023/09/09 14:29:13;;;;;;;1.60;1.50;;;;;;;;;;5023291;28;20073;-60
2023/09/09 14:31:39;;;;;;;1.38;1.27;;;;;;;;;;5023342;28;20438;-61
2023/09/09 14:34:05;;;;;;;1.80;1.70;;;;;;;;;;5024680;28;20121;-61
2023/09/09 14:36:31;;;;;;;2.75;2.00;;;;;;;;;;5024490;28;20103;-61
2023/09/09 14:38:57;;;;;;;1.75;1.65;;;;;;;;;;5024212;28;20096;-61
2023/09/09 14:41:23;;;;;;;1.60;1.50;;;;;;;;;;5023260;28;20045;-61